createdAt,value
2018-03-15T00:03:25.700Z,10.13
2018-03-15T00:05:53.165Z,10.93
2018-03-15T00:08:20.662Z,11.30
2018-03-15T00:10:48.325Z,10.75
2018-03-15T00:13:15.823Z,10.70
2018-03-15T00:15:43.255Z,10.73
2018-03-15T00:18:11.493Z,11.90
2018-03-15T00:20:39.024Z,11.80
2018-03-15T00:23:06.513Z,11.38
2018-03-15T00:25:33.973Z,11.30
2018-03-15T00:28:01.454Z,11.52
2018-03-15T00:30:28.926Z,11.00
2018-03-15T00:32:57.342Z,11.10
2018-03-15T00:35:24.758Z,12.00
2018-03-15T00:37:52.219Z,11.68
2018-03-15T00:40:20.466Z,11.15
2018-03-15T00:42:48.018Z,10.75
2018-03-15T00:45:15.595Z,10.68
2018-03-15T00:47:43.143Z,11.98
2018-03-15T00:50:10.714Z,12.20
2018-03-15T00:52:38.950Z,10.73
2018-03-15T00:55:06.562Z,10.98
2018-03-15T00:57:34.806Z,11.88
2018-03-15T01:00:02.365Z,11.00
2018-03-15T01:02:29.838Z,12.20
2018-03-15T01:04:57.310Z,12.55
2018-03-15T01:07:25.541Z,12.65
2018-03-15T01:09:53.012Z,12.20
2018-03-15T01:12:20.477Z,12.98
2018-03-15T01:14:47.980Z,11.23
2018-03-15T01:17:15.596Z,12.82
2018-03-15T01:19:43.056Z,11.60
2018-03-15T01:22:11.313Z,11.85
2018-03-15T01:24:38.853Z,13.85
2018-03-15T01:27:06.331Z,12.60
2018-03-15T01:29:34.565Z,13.45
2018-03-15T01:32:02.070Z,11.57
2018-03-15T01:34:29.524Z,13.30
2018-03-15T01:36:57.087Z,12.68
2018-03-15T01:39:24.558Z,13.68
2018-03-15T01:41:52.851Z,13.27
2018-03-15T01:44:20.381Z,12.02
2018-03-15T01:46:47.849Z,12.27
2018-03-15T01:49:16.107Z,12.85
2018-03-15T01:51:43.566Z,11.70
2018-03-15T01:54:11.838Z,12.68
2018-03-15T01:56:39.314Z,14.07
2018-03-15T01:59:07.550Z,12.65
2018-03-15T02:01:35.019Z,12.40
2018-03-15T02:04:02.591Z,11.70
2018-03-15T02:06:30.138Z,13.30
2018-03-15T02:08:57.610Z,13.45
2018-03-15T02:11:25.078Z,13.60
2018-03-15T02:13:53.300Z,13.00
2018-03-15T02:16:20.781Z,14.07
2018-03-15T02:18:48.349Z,12.60
2018-03-15T02:21:15.902Z,11.98
2018-03-15T02:23:43.460Z,14.15
2018-03-15T02:26:10.930Z,12.35
2018-03-15T02:28:39.166Z,13.73
2018-03-15T02:31:06.625Z,13.80
2018-03-15T02:33:34.113Z,13.50
2018-03-15T02:36:01.586Z,13.55
2018-03-15T02:38:29.902Z,12.68
2018-03-15T02:40:57.371Z,12.43
2018-03-15T02:43:24.842Z,13.25
2018-03-15T02:45:52.308Z,13.60
2018-03-15T02:48:19.778Z,14.10
2018-03-15T02:50:47.329Z,15.00
2018-03-15T02:53:15.557Z,13.27
2018-03-15T02:55:43.640Z,15.52
2018-03-15T02:58:11.172Z,12.63
2018-03-15T03:00:38.578Z,12.60
2018-03-15T03:03:06.065Z,14.38
2018-03-15T03:05:33.616Z,13.85
2018-03-15T03:08:02.585Z,12.32
2018-03-15T03:10:30.158Z,13.90
2018-03-15T03:12:57.770Z,13.10
2018-03-15T03:15:25.225Z,12.75
2018-03-15T03:17:52.735Z,14.10
2018-03-15T03:20:21.719Z,13.77
2018-03-15T03:22:49.277Z,13.65
2018-03-15T03:25:16.769Z,13.35
2018-03-15T03:27:44.997Z,13.05
2018-03-15T03:30:12.487Z,13.38
2018-03-15T03:32:39.945Z,13.30
2018-03-15T03:35:08.200Z,13.48
2018-03-15T03:37:35.670Z,12.95
2018-03-15T03:40:03.172Z,12.50
2018-03-15T03:42:30.729Z,13.30
2018-03-15T03:44:58.194Z,14.23
2018-03-15T03:47:25.653Z,13.25
2018-03-15T03:49:53.160Z,14.05
2018-03-15T03:52:21.395Z,12.50
2018-03-15T03:54:48.895Z,12.68
2018-03-15T03:57:17.158Z,12.55
2018-03-15T03:59:44.713Z,13.52
2018-03-15T04:02:12.177Z,11.82
2018-03-15T04:04:39.742Z,12.60
2018-03-15T04:07:08.013Z,11.90
2018-03-15T04:09:35.478Z,11.07
2018-03-15T04:12:03.721Z,12.55
2018-03-15T04:14:31.205Z,14.73
2018-03-15T04:16:58.673Z,12.68
2018-03-15T04:19:26.942Z,13.25
2018-03-15T04:21:55.178Z,13.23
2018-03-15T04:24:22.640Z,13.13
2018-03-15T04:26:50.109Z,13.93
2018-03-15T04:29:17.578Z,13.15
2018-03-15T04:31:45.087Z,15.50
2018-03-15T04:34:12.597Z,14.60
2018-03-15T04:36:40.061Z,13.65
2018-03-15T04:39:08.306Z,13.07
2018-03-15T04:41:35.893Z,13.77
2018-03-15T04:44:04.133Z,13.85
2018-03-15T04:46:31.597Z,14.70
2018-03-15T04:48:59.060Z,14.07
2018-03-15T04:51:26.531Z,13.88
2018-03-15T04:53:53.992Z,12.73
2018-03-15T04:56:22.255Z,14.20
2018-03-15T04:58:49.733Z,13.93
2018-03-15T05:01:17.965Z,12.30
2018-03-15T05:03:45.469Z,14.13
2018-03-15T05:06:13.701Z,12.10
2018-03-15T05:08:41.185Z,12.45
2018-03-15T05:11:09.419Z,14.15
2018-03-15T05:13:36.905Z,13.40
2018-03-15T05:16:04.465Z,13.80
2018-03-15T05:18:32.031Z,12.18
2018-03-15T05:20:59.493Z,12.65
2018-03-15T05:23:26.951Z,13.57
2018-03-15T05:25:55.187Z,12.32
2018-03-15T05:28:22.655Z,13.52
2018-03-15T05:30:50.129Z,12.98
2018-03-15T05:33:17.682Z,14.90
2018-03-15T05:35:45.154Z,13.05
2018-03-15T05:38:12.748Z,14.38
2018-03-15T05:40:41.031Z,14.98
2018-03-15T05:43:08.494Z,14.18
2018-03-15T05:45:35.957Z,15.48
2018-03-15T05:48:03.434Z,13.30
2018-03-15T05:50:31.006Z,14.50
2018-03-15T05:52:58.578Z,15.45
2018-03-15T05:55:26.134Z,16.70
2018-03-15T05:57:53.691Z,17.12
2018-03-15T06:00:21.154Z,17.65
2018-03-15T06:02:49.403Z,17.05
2018-03-15T06:05:16.860Z,17.58
2018-03-15T06:07:44.347Z,16.08
2018-03-15T06:10:12.646Z,17.10
2018-03-15T06:12:40.168Z,17.00
2018-03-15T06:15:08.407Z,15.73
2018-03-15T06:17:35.896Z,18.52
2018-03-15T06:20:03.361Z,16.45
2018-03-15T06:22:31.643Z,16.45
2018-03-15T06:24:59.910Z,17.12
2018-03-15T06:27:27.388Z,16.12
2018-03-15T06:29:55.622Z,16.75
2018-03-15T06:32:23.162Z,15.93
2018-03-15T06:34:50.629Z,15.68
2018-03-15T06:37:18.177Z,15.05
2018-03-15T06:39:45.641Z,17.15
2018-03-15T06:42:13.105Z,14.68
2018-03-15T06:44:41.403Z,15.73
2018-03-15T06:47:09.679Z,14.50
2018-03-15T06:49:37.234Z,18.15
2018-03-15T06:52:04.722Z,17.25
2018-03-15T06:54:32.233Z,17.08
2018-03-15T06:56:59.702Z,17.30
2018-03-15T06:59:27.953Z,14.77
2018-03-15T07:01:55.489Z,16.35
2018-03-15T07:04:22.949Z,16.83
2018-03-15T07:06:50.504Z,17.42
2018-03-15T07:09:17.965Z,17.00
2018-03-15T07:11:45.449Z,16.27
2018-03-15T07:14:12.922Z,18.25
2018-03-15T07:16:40.459Z,15.75
2018-03-15T07:19:07.942Z,15.68
2018-03-15T07:21:35.418Z,15.20
2018-03-15T07:24:02.894Z,14.32
2018-03-15T07:26:30.462Z,15.45
2018-03-15T07:28:57.977Z,15.57
2018-03-15T07:31:25.461Z,16.45
2018-03-15T07:33:52.931Z,14.13
2018-03-15T07:36:20.464Z,14.55
2018-03-15T07:38:47.898Z,14.82
2018-03-15T07:41:15.367Z,15.75
2018-03-15T07:43:43.630Z,14.20
2018-03-15T07:46:11.106Z,14.23
2018-03-15T07:48:39.441Z,14.38
2018-03-15T07:51:06.994Z,16.10
2018-03-15T07:53:34.465Z,14.60
2018-03-15T07:56:01.940Z,14.70
2018-03-15T07:58:29.405Z,13.90
2018-03-15T08:00:57.654Z,16.23
2018-03-15T08:03:25.328Z,14.87
2018-03-15T08:05:52.787Z,14.45
2018-03-15T08:08:20.259Z,13.82
2018-03-15T08:10:48.509Z,15.75
2018-03-15T08:13:15.978Z,14.50
2018-03-15T08:15:43.467Z,17.45
2018-03-15T08:18:10.933Z,14.38
2018-03-15T08:20:38.453Z,15.43
2018-03-15T08:23:05.902Z,15.27
2018-03-15T08:25:33.371Z,14.80
2018-03-15T08:28:01.605Z,15.57
2018-03-15T08:30:29.090Z,15.88
2018-03-15T08:32:56.653Z,15.75
2018-03-15T08:35:24.202Z,16.05
2018-03-15T08:37:51.820Z,14.60
2018-03-15T08:40:19.912Z,16.00
2018-03-15T08:42:47.380Z,14.87
2018-03-15T08:45:14.845Z,16.75
2018-03-15T08:47:42.339Z,16.58
2018-03-15T08:50:10.595Z,15.15
2018-03-15T08:52:38.143Z,15.73
2018-03-15T08:55:06.490Z,17.05
2018-03-15T08:57:33.959Z,17.87
2018-03-15T09:00:01.439Z,17.35
2018-03-15T09:02:28.909Z,14.80
2018-03-15T09:04:57.370Z,15.00
2018-03-15T09:07:25.446Z,14.13
2018-03-15T09:09:53.002Z,14.50
2018-03-15T09:12:20.570Z,14.98
2018-03-15T09:14:48.124Z,14.55
2018-03-15T09:17:15.594Z,16.00
2018-03-15T09:19:43.825Z,14.48
2018-03-15T09:22:11.318Z,14.93
2018-03-15T09:24:38.861Z,14.63
2018-03-15T09:27:06.416Z,14.63
2018-03-15T09:29:33.978Z,14.85
2018-03-15T09:32:01.517Z,17.02
2018-03-15T09:34:29.125Z,12.77
2018-03-15T09:36:56.535Z,16.17
2018-03-15T09:39:24.117Z,14.30
2018-03-15T09:41:51.595Z,14.70
2018-03-15T09:44:19.845Z,14.90
2018-03-15T09:46:47.404Z,15.55
2018-03-15T09:49:15.020Z,15.70
2018-03-15T09:51:42.527Z,15.40
2018-03-15T09:54:10.006Z,14.87
2018-03-15T09:56:37.490Z,14.75
2018-03-15T09:59:04.973Z,13.93
2018-03-15T10:01:32.462Z,13.80
2018-03-15T10:04:00.718Z,13.35
2018-03-15T10:06:28.192Z,14.45
2018-03-15T10:08:56.475Z,14.05
2018-03-15T10:11:24.794Z,15.63
2018-03-15T10:13:52.301Z,14.02
2018-03-15T10:16:19.788Z,15.25
2018-03-15T10:18:47.253Z,13.75
2018-03-15T10:21:14.731Z,13.35
2018-03-15T10:23:42.233Z,15.48
2018-03-15T10:26:10.478Z,14.10
2018-03-15T10:28:37.960Z,14.77
2018-03-15T10:31:06.212Z,14.43
2018-03-15T10:33:38.244Z,12.20
2018-03-15T10:36:05.721Z,13.13
2018-03-15T10:38:33.194Z,14.23
2018-03-15T10:41:00.772Z,12.60
2018-03-15T10:43:28.329Z,14.82
2018-03-15T10:45:55.830Z,15.25
2018-03-15T10:48:23.450Z,12.68
2018-03-15T10:50:51.730Z,13.60
2018-03-15T10:53:20.108Z,14.43
2018-03-15T10:55:47.668Z,12.82
2018-03-15T10:58:15.914Z,12.27
2018-03-15T11:00:49.131Z,13.30
2018-03-15T11:03:17.385Z,10.82
2018-03-15T11:05:46.376Z,13.00
2018-03-15T11:08:20.103Z,13.60
2018-03-15T11:10:48.388Z,13.23
2018-03-15T11:13:15.874Z,14.32
2018-03-15T11:15:43.388Z,12.32
2018-03-15T11:18:10.927Z,13.62
2018-03-15T11:20:38.510Z,13.35
2018-03-15T11:23:06.806Z,14.10
2018-03-15T11:25:34.298Z,14.00
2018-03-15T11:28:01.790Z,13.60
2018-03-15T11:30:29.270Z,13.73
2018-03-15T11:32:57.595Z,14.40
2018-03-15T11:35:25.144Z,12.18
2018-03-15T11:37:52.641Z,12.63
2018-03-15T11:40:20.121Z,15.10
2018-03-15T11:42:48.390Z,14.13
2018-03-15T11:45:16.705Z,14.77
2018-03-15T11:47:44.175Z,14.20
2018-03-15T11:50:11.670Z,13.93
2018-03-15T11:52:39.169Z,15.45
2018-03-15T11:55:06.647Z,13.52
2018-03-15T11:57:34.217Z,14.02
2018-03-15T12:00:01.752Z,14.63
2018-03-15T12:02:29.221Z,12.73
2018-03-15T12:04:56.847Z,13.95
2018-03-15T12:07:24.316Z,15.07
2018-03-15T12:09:51.808Z,13.60
2018-03-15T12:12:19.286Z,12.65
2018-03-15T12:14:46.772Z,12.50
2018-03-15T12:17:14.293Z,12.60
2018-03-15T12:19:41.764Z,12.95
2018-03-15T12:22:09.230Z,13.85
2018-03-15T12:24:37.473Z,12.75
2018-03-15T12:27:04.965Z,11.52
2018-03-15T12:29:33.202Z,13.05
2018-03-15T12:32:00.666Z,12.80
2018-03-15T12:34:28.210Z,12.55
2018-03-15T12:36:55.796Z,12.55
2018-03-15T12:39:23.273Z,12.77
2018-03-15T12:41:50.742Z,12.27
2018-03-15T12:44:18.973Z,11.23
2018-03-15T12:46:46.599Z,11.30
2018-03-15T12:49:14.057Z,11.35
2018-03-15T12:51:41.533Z,13.57
2018-03-15T12:54:09.026Z,12.13
2018-03-15T12:56:36.497Z,12.95
2018-03-15T12:59:04.729Z,11.02
2018-03-15T13:01:32.204Z,11.10
2018-03-15T13:03:59.715Z,10.38
2018-03-15T13:06:27.187Z,11.80
2018-03-15T13:08:54.700Z,11.80
2018-03-15T13:11:22.984Z,10.65
2018-03-15T13:13:50.434Z,10.93
2018-03-15T13:16:18.671Z,10.90
2018-03-15T13:18:46.147Z,11.10
2018-03-15T13:21:13.613Z,11.45
2018-03-15T13:23:41.846Z,10.63
2018-03-15T13:26:09.314Z,10.10
2018-03-15T13:28:36.802Z,10.75
2018-03-15T13:31:05.030Z,9.95
2018-03-15T13:33:32.512Z,11.43
2018-03-15T13:35:59.979Z,10.57
2018-03-15T13:38:28.219Z,10.32
2018-03-15T13:40:55.818Z,10.55
2018-03-15T13:43:23.476Z,10.98
2018-03-15T13:45:51.045Z,10.90
2018-03-15T13:48:19.360Z,10.60
2018-03-15T13:50:46.831Z,10.05
2018-03-15T13:53:14.312Z,11.05
2018-03-15T13:55:41.778Z,10.43
2018-03-15T13:58:09.438Z,10.80
2018-03-15T14:00:37.000Z,11.12
2018-03-15T14:03:04.474Z,11.18
2018-03-15T14:05:32.706Z,10.85
2018-03-15T14:08:00.169Z,11.05
2018-03-15T14:10:27.641Z,10.68
2018-03-15T14:12:55.204Z,10.48
2018-03-15T14:15:23.433Z,11.43
2018-03-15T14:17:50.902Z,10.52
2018-03-15T14:20:18.380Z,11.35
2018-03-15T14:22:45.885Z,11.55
2018-03-15T14:25:13.359Z,12.37
2018-03-15T14:27:40.826Z,11.90
2018-03-15T14:30:08.329Z,13.02
2018-03-15T14:32:36.561Z,12.63
2018-03-15T14:35:04.029Z,10.13
2018-03-15T14:37:31.602Z,10.80
2018-03-15T14:40:00.583Z,10.48
2018-03-15T14:42:28.053Z,11.45
2018-03-15T14:44:55.636Z,10.85
2018-03-15T14:47:23.881Z,11.75
2018-03-15T14:49:51.357Z,11.77
2018-03-15T14:52:18.916Z,11.98
2018-03-15T14:54:47.192Z,11.40
2018-03-15T14:57:14.687Z,12.85
2018-03-15T14:59:42.158Z,11.35
2018-03-15T15:02:09.625Z,11.50
2018-03-15T15:04:37.107Z,11.25
2018-03-15T15:07:04.731Z,12.02
2018-03-15T15:09:32.234Z,12.35
2018-03-15T15:11:59.697Z,12.27
2018-03-15T15:14:27.953Z,13.27
2018-03-15T15:16:55.443Z,11.27
2018-03-15T15:19:23.677Z,11.98
2018-03-15T15:21:51.160Z,11.07
2018-03-15T15:24:18.617Z,11.10
2018-03-15T15:26:46.094Z,12.37
2018-03-15T15:29:14.322Z,12.43
2018-03-15T15:31:41.807Z,11.52
2018-03-15T15:34:09.286Z,12.15
2018-03-15T15:36:36.830Z,12.02
2018-03-15T15:39:05.066Z,10.98
2018-03-15T15:41:32.558Z,11.15
2018-03-15T15:44:00.829Z,10.15
2018-03-15T15:46:29.074Z,10.95
2018-03-15T15:48:56.550Z,11.40
2018-03-15T15:51:24.045Z,11.82
2018-03-15T15:53:51.518Z,11.43
2018-03-15T15:56:18.974Z,12.18
2018-03-15T15:58:46.472Z,11.73
2018-03-15T16:01:14.007Z,12.93
2018-03-15T16:03:41.491Z,10.98
2018-03-15T16:06:08.970Z,12.50
2018-03-15T16:08:37.205Z,13.30
2018-03-15T16:11:04.677Z,12.55
2018-03-15T16:13:32.237Z,12.73
2018-03-15T16:15:59.704Z,12.50
2018-03-15T16:18:27.174Z,11.68
2018-03-15T16:20:55.434Z,12.93
2018-03-15T16:23:23.759Z,12.55
2018-03-15T16:25:51.232Z,12.88
2018-03-15T16:28:18.697Z,12.63
2018-03-15T16:30:46.169Z,13.30
2018-03-15T16:33:13.738Z,13.07
2018-03-15T16:35:41.297Z,13.90
2018-03-15T16:38:08.761Z,13.05
2018-03-15T16:40:36.220Z,12.52
2018-03-15T16:43:04.517Z,12.43
2018-03-15T16:45:31.949Z,13.07
2018-03-15T16:47:59.450Z,13.43
2018-03-15T16:50:26.954Z,12.75
2018-03-15T16:52:54.414Z,12.55
2018-03-15T16:55:21.973Z,14.05
2018-03-15T16:57:50.942Z,12.90
2018-03-15T17:00:18.810Z,12.23
2018-03-15T17:02:46.273Z,12.82
2018-03-15T17:05:13.745Z,12.82
2018-03-15T17:07:41.303Z,13.73
2018-03-15T17:10:08.860Z,13.07
2018-03-15T17:12:36.421Z,12.57
2018-03-15T17:15:03.889Z,13.40
2018-03-15T17:17:32.149Z,14.90
2018-03-15T17:19:59.710Z,15.02
2018-03-15T17:22:27.266Z,13.02
2018-03-15T17:24:54.840Z,13.13
2018-03-15T17:27:22.305Z,14.38
2018-03-15T17:29:50.526Z,12.82
2018-03-15T17:32:17.998Z,14.98
2018-03-15T17:34:45.467Z,14.25
2018-03-15T17:37:12.961Z,14.10
2018-03-15T17:39:41.186Z,14.32
2018-03-15T17:42:08.654Z,15.00
2018-03-15T17:44:36.117Z,13.73
2018-03-15T17:47:03.683Z,14.18
2018-03-15T17:49:31.142Z,15.20
2018-03-15T17:51:58.607Z,14.23
2018-03-15T17:54:26.848Z,14.95
2018-03-15T17:56:54.313Z,15.23
2018-03-15T17:59:21.781Z,15.95
2018-03-15T18:01:49.250Z,15.38
2018-03-15T18:04:17.516Z,15.60
2018-03-15T18:06:45.816Z,14.95
2018-03-15T18:09:14.065Z,14.90
2018-03-15T18:11:41.527Z,16.67
2018-03-15T18:14:08.996Z,16.45
2018-03-15T18:16:37.249Z,16.00
2018-03-15T18:19:04.759Z,16.05
2018-03-15T18:21:32.227Z,15.85
2018-03-15T18:23:59.691Z,18.25
2018-03-15T18:26:27.205Z,17.02
2018-03-15T18:28:55.442Z,17.55
2018-03-15T18:31:22.907Z,16.90
2018-03-15T18:33:50.387Z,17.90
2018-03-15T18:36:18.604Z,17.95
2018-03-15T18:38:46.110Z,19.27
2018-03-15T18:41:13.576Z,16.25
2018-03-15T18:43:41.810Z,18.25
2018-03-15T18:46:09.291Z,18.17
2018-03-15T18:48:36.753Z,18.52
2018-03-15T18:51:04.213Z,17.83
2018-03-15T18:53:32.438Z,18.30
2018-03-15T18:56:00.080Z,18.20
2018-03-15T18:58:27.543Z,17.37
2018-03-15T19:00:55.014Z,17.80
2018-03-15T19:03:22.473Z,18.55
2018-03-15T19:05:49.947Z,19.67
2018-03-15T19:08:18.396Z,19.10
2018-03-15T19:10:45.908Z,19.92
2018-03-15T19:13:14.187Z,21.48
2018-03-15T19:15:41.729Z,20.33
2018-03-15T19:18:09.214Z,18.35
2018-03-15T19:20:37.468Z,20.88
2018-03-15T19:23:04.930Z,21.37
2018-03-15T19:25:33.165Z,22.20
2018-03-15T19:28:00.637Z,20.50
2018-03-15T19:30:28.105Z,21.02
2018-03-15T19:32:57.105Z,19.85
2018-03-15T19:35:24.569Z,18.98
2018-03-15T19:37:52.842Z,20.73
2018-03-15T19:40:20.268Z,20.85
2018-03-15T19:42:47.732Z,21.98
2018-03-15T19:45:15.194Z,20.70
2018-03-15T19:47:42.677Z,21.02
2018-03-15T19:50:10.918Z,21.58
2018-03-15T19:52:38.397Z,20.48
2018-03-15T19:55:05.861Z,21.95
2018-03-15T19:57:33.422Z,20.88
2018-03-15T20:00:01.654Z,22.75
2018-03-15T20:02:29.129Z,20.23
2018-03-15T20:04:57.146Z,21.67
2018-03-15T20:07:24.610Z,21.75
2018-03-15T20:09:52.087Z,20.90
2018-03-15T20:12:19.688Z,21.70
2018-03-15T20:14:47.243Z,21.80
2018-03-15T20:17:15.477Z,21.58
2018-03-15T20:19:42.952Z,21.50
2018-03-15T20:22:10.410Z,21.77
2018-03-15T20:24:37.908Z,21.95
2018-03-15T20:27:05.446Z,21.77
2018-03-15T20:29:34.436Z,22.50
2018-03-15T20:32:01.900Z,21.62
2018-03-15T20:34:29.393Z,19.87
2018-03-15T20:36:56.918Z,22.95
2018-03-15T20:39:30.036Z,23.62
2018-03-15T20:41:57.502Z,21.48
2018-03-15T20:44:24.974Z,24.30
2018-03-15T20:46:58.168Z,24.10
2018-03-15T20:49:25.669Z,22.17
2018-03-15T20:51:53.146Z,23.48
2018-03-15T20:54:21.415Z,23.48
2018-03-15T20:56:49.658Z,24.10
2018-03-15T20:59:17.233Z,22.40
2018-03-15T21:01:44.696Z,23.60
2018-03-15T21:04:12.196Z,24.25
2018-03-15T21:06:39.662Z,22.10
2018-03-15T21:09:07.152Z,23.62
2018-03-15T21:11:34.621Z,25.27
2018-03-15T21:14:02.094Z,24.23
2018-03-15T21:16:30.457Z,25.27
2018-03-15T21:18:57.945Z,24.55
2018-03-15T21:21:25.413Z,24.50
2018-03-15T21:23:52.919Z,24.17
2018-03-15T21:26:20.433Z,24.12
2018-03-15T21:28:47.993Z,23.98
2018-03-15T21:31:15.465Z,25.08
2018-03-15T21:33:42.936Z,25.70
2018-03-15T21:36:10.422Z,25.30
2018-03-15T21:38:38.659Z,26.42
2018-03-15T21:41:06.116Z,25.95
2018-03-15T21:43:33.581Z,26.45
2018-03-15T21:46:01.041Z,25.10
2018-03-15T21:48:28.496Z,24.15
2018-03-15T21:50:55.961Z,26.45
2018-03-15T21:53:23.506Z,25.35
2018-03-15T21:55:50.994Z,28.15
2018-03-15T21:58:19.232Z,25.67
2018-03-15T22:00:46.700Z,26.10
2018-03-15T22:03:14.187Z,24.30
2018-03-15T22:05:41.661Z,24.10
2018-03-15T22:08:09.130Z,23.95
2018-03-15T22:10:36.632Z,24.98
2018-03-15T22:13:04.092Z,27.80
2018-03-15T22:15:31.752Z,26.62
2018-03-15T22:17:59.212Z,26.15
2018-03-15T22:20:27.651Z,25.42
2018-03-15T22:22:55.152Z,26.40
2018-03-15T22:25:22.705Z,27.00
2018-03-15T22:27:50.169Z,25.15
2018-03-15T22:30:17.727Z,28.15
2018-03-15T22:32:45.442Z,28.23
2018-03-15T22:35:12.923Z,27.50
2018-03-15T22:37:40.394Z,28.87
2018-03-15T22:40:07.921Z,25.83
2018-03-15T22:42:35.409Z,27.87
2018-03-15T22:45:02.866Z,26.87
2018-03-15T22:47:30.349Z,25.75
2018-03-15T22:49:58.585Z,28.00
2018-03-15T22:52:26.064Z,25.88
2018-03-15T22:54:53.521Z,27.42
2018-03-15T22:57:21.089Z,27.27
2018-03-15T22:59:48.540Z,27.13
2018-03-15T23:02:16.021Z,26.35
2018-03-15T23:04:44.410Z,28.08
2018-03-15T23:07:11.877Z,28.65
2018-03-15T23:09:39.357Z,26.98
2018-03-15T23:12:06.830Z,26.10
2018-03-15T23:14:34.291Z,27.35
2018-03-15T23:17:01.755Z,26.90
2018-03-15T23:19:29.308Z,29.20
2018-03-15T23:21:56.794Z,25.55
2018-03-15T23:24:25.027Z,26.00
2018-03-15T23:26:52.481Z,28.92
2018-03-15T23:29:19.942Z,27.52
2018-03-15T23:31:47.414Z,28.77
2018-03-15T23:34:14.926Z,26.87
2018-03-15T23:36:42.393Z,28.98
2018-03-15T23:39:09.866Z,29.48
2018-03-15T23:41:37.356Z,25.23
2018-03-15T23:44:04.901Z,27.30
2018-03-15T23:46:32.367Z,27.10
2018-03-15T23:48:59.835Z,28.33
2018-03-15T23:51:28.074Z,25.90
2018-03-15T23:53:55.532Z,27.08
2018-03-15T23:56:23.100Z,26.10
2018-03-15T23:58:50.616Z,27.10
